Main page
METAR-TAF:

METAR-TAF

Airports :

P11-b, Netherlands

Oil platform

latitude: 52-21-36N, longitude: 3-20-30E, elevation: 24 m

Current weather observation

The report was made 38 minutes ago, at 01:55 UTC
Wind 3 kt from the North/Northeast, varying between West and East/Northeast
Temperature 16°C
Humidity 77%
Pressure 1009 hPa
Visibility 10 km or more
Few clouds at a height of 1600 ft, Cumulonimbus.
Scattered clouds at a height of 2100 ft
Broken clouds at a height of 2800 ft
light rain

METAR: EHPG 240155Z AUTO 02003KT 270V070 9999 -RA FEW016CB SCT021 BKN028 16/12 Q1009

Time: 04:33 (02:33 UTC)


TAF: missing

Weather observations and forecasts of more than 4000 airports (METAR and TAF reports).

The available stations are represented by yellow and red dots on the map.

Hover mouse over dot to see the name of the station.

Then click to see weather observations and forecasts.

To change the map : click on the green buttons with a black cross to zoom in, on the green button with a dash to zoom out, or on the green arrows for adjacent maps.


METAR-TAF: